createdAt,value
2018-06-28T00:02:08.813Z,2.10
2018-06-28T00:04:38.794Z,1.90
2018-06-28T00:07:07.785Z,2.07
2018-06-28T00:09:36.822Z,2.23
2018-06-28T00:12:06.009Z,2.33
2018-06-28T00:14:35.030Z,2.17
2018-06-28T00:17:03.997Z,2.00
2018-06-28T00:19:33.110Z,2.40
2018-06-28T00:22:02.018Z,2.13
2018-06-28T00:24:30.957Z,2.10
2018-06-28T00:27:00.026Z,2.33
2018-06-28T00:29:28.965Z,2.03
2018-06-28T00:31:57.850Z,2.10
2018-06-28T00:34:26.777Z,2.03
2018-06-28T00:36:55.749Z,2.30
2018-06-28T00:39:24.753Z,2.10
2018-06-28T00:41:53.676Z,2.20
2018-06-28T00:44:22.614Z,2.00
2018-06-28T00:46:51.566Z,2.50
2018-06-28T00:49:20.499Z,2.27
2018-06-28T00:51:49.539Z,2.60
2018-06-28T00:54:18.517Z,2.60
2018-06-28T00:56:47.605Z,2.00
2018-06-28T00:59:16.641Z,2.40
2018-06-28T01:01:45.527Z,2.30
2018-06-28T01:04:14.491Z,2.40
2018-06-28T01:06:43.382Z,2.37
2018-06-28T01:09:12.261Z,2.30
2018-06-28T01:11:40.939Z,2.10
2018-06-28T01:14:09.669Z,2.23
2018-06-28T01:16:38.606Z,2.00
2018-06-28T01:19:07.533Z,2.33
2018-06-28T01:21:36.473Z,2.40
2018-06-28T01:24:05.513Z,2.50
2018-06-28T01:26:34.463Z,2.20
2018-06-28T01:29:03.613Z,2.50
2018-06-28T01:31:32.278Z,2.53
2018-06-28T01:34:00.970Z,2.83
2018-06-28T01:36:29.917Z,2.90
2018-06-28T01:38:58.806Z,2.60
2018-06-28T01:41:36.566Z,2.43
2018-06-28T01:44:05.655Z,3.00
2018-06-28T01:46:34.534Z,3.03
2018-06-28T01:49:03.618Z,3.30
2018-06-28T01:51:32.501Z,2.87
2018-06-28T01:54:01.494Z,3.10
2018-06-28T01:56:30.353Z,2.97
2018-06-28T01:58:59.389Z,2.87
2018-06-28T02:01:28.378Z,2.87
2018-06-28T02:03:57.293Z,3.07
2018-06-28T02:06:26.202Z,3.20
2018-06-28T02:08:55.123Z,3.20
2018-06-28T02:11:24.058Z,3.67
2018-06-28T02:13:53.173Z,3.10
2018-06-28T02:16:22.082Z,3.73
2018-06-28T02:18:50.993Z,3.83
2018-06-28T02:21:20.275Z,2.97
2018-06-28T02:23:49.177Z,3.20
2018-06-28T02:26:18.101Z,3.97
2018-06-28T02:28:46.777Z,3.03
2018-06-28T02:31:15.474Z,3.13
2018-06-28T02:33:44.415Z,3.03
2018-06-28T02:36:13.318Z,3.87
2018-06-28T02:38:42.338Z,2.90
2018-06-28T02:41:11.366Z,3.67
2018-06-28T02:43:40.314Z,3.20
2018-06-28T02:46:09.235Z,4.10
2018-06-28T02:48:38.109Z,3.40
2018-06-28T02:51:07.134Z,4.00
2018-06-28T02:53:36.149Z,3.90
2018-06-28T02:56:04.852Z,4.00
2018-06-28T02:58:33.521Z,4.07
2018-06-28T03:01:02.473Z,4.23
2018-06-28T03:03:31.425Z,3.80
2018-06-28T03:06:00.358Z,4.00
2018-06-28T03:08:30.183Z,3.90
2018-06-28T03:10:59.138Z,4.70
2018-06-28T03:13:28.029Z,4.30
2018-06-28T03:15:56.919Z,4.30
2018-06-28T03:18:25.896Z,4.80
2018-06-28T03:20:54.814Z,4.87
2018-06-28T03:23:23.717Z,4.57
2018-06-28T03:25:52.640Z,4.70
2018-06-28T03:28:21.525Z,4.87
2018-06-28T03:30:50.564Z,4.40
2018-06-28T03:33:19.461Z,4.37
2018-06-28T03:35:48.346Z,5.30
2018-06-28T03:38:17.244Z,4.70
2018-06-28T03:40:46.143Z,4.60
2018-06-28T03:43:15.089Z,4.13
2018-06-28T03:45:43.961Z,4.77
2018-06-28T03:48:12.859Z,4.73
2018-06-28T03:50:41.738Z,4.53
2018-06-28T03:53:10.630Z,4.67
2018-06-28T03:55:39.562Z,4.60
2018-06-28T03:58:08.802Z,4.97
2018-06-28T04:00:37.707Z,4.47
2018-06-28T04:03:06.609Z,4.17
2018-06-28T04:05:35.522Z,4.73
2018-06-28T04:08:04.437Z,4.03
2018-06-28T04:10:33.529Z,4.40
2018-06-28T04:13:02.425Z,4.50
2018-06-28T04:15:31.369Z,4.83
2018-06-28T04:18:00.266Z,4.17
2018-06-28T04:20:29.149Z,4.73
2018-06-28T04:22:58.237Z,4.50
2018-06-28T04:25:27.291Z,4.70
2018-06-28T04:27:56.190Z,4.10
2018-06-28T04:30:25.386Z,4.40
2018-06-28T04:32:54.269Z,4.10
2018-06-28T04:35:23.244Z,5.27
2018-06-28T04:37:52.138Z,4.50
2018-06-28T04:40:21.105Z,4.27
2018-06-28T04:42:50.116Z,4.60
2018-06-28T04:45:19.025Z,4.37
2018-06-28T04:47:48.953Z,4.30
2018-06-28T04:50:17.899Z,4.07
2018-06-28T04:52:46.826Z,4.23
2018-06-28T04:55:15.706Z,4.03
2018-06-28T04:57:44.614Z,3.93
2018-06-28T05:00:13.521Z,4.03
2018-06-28T05:02:42.553Z,6.07
2018-06-28T05:05:11.486Z,6.57
2018-06-28T05:07:40.425Z,6.73
2018-06-28T05:10:09.403Z,5.90
2018-06-28T05:12:38.313Z,5.53
2018-06-28T05:15:07.394Z,6.17
2018-06-28T05:17:36.350Z,5.37
2018-06-28T05:20:05.289Z,4.57
2018-06-28T05:22:34.443Z,5.13
2018-06-28T05:25:03.638Z,4.20
2018-06-28T05:27:32.637Z,4.60
2018-06-28T05:30:01.585Z,4.50
2018-06-28T05:32:30.622Z,4.10
2018-06-28T05:34:59.566Z,4.53
2018-06-28T05:37:28.465Z,5.17
2018-06-28T05:39:57.502Z,4.57
2018-06-28T05:42:26.590Z,4.20
2018-06-28T05:44:55.490Z,4.13
2018-06-28T05:47:24.794Z,3.87
2018-06-28T05:49:53.702Z,4.10
2018-06-28T05:52:23.454Z,4.20
2018-06-28T05:54:52.354Z,4.33
2018-06-28T05:57:21.445Z,4.57
2018-06-28T05:59:50.366Z,4.20
2018-06-28T06:02:19.319Z,4.30
2018-06-28T06:04:48.226Z,4.77
2018-06-28T06:07:17.157Z,3.60
2018-06-28T06:09:46.100Z,4.07
2018-06-28T06:12:15.026Z,4.27
2018-06-28T06:14:43.984Z,3.97
2018-06-28T06:17:13.138Z,4.33
2018-06-28T06:19:42.117Z,3.83
2018-06-28T06:22:11.031Z,3.33
2018-06-28T06:24:39.922Z,4.03
2018-06-28T06:27:08.866Z,3.77
2018-06-28T06:29:37.774Z,3.50
2018-06-28T06:32:06.769Z,3.80
2018-06-28T06:34:35.686Z,4.00
2018-06-28T06:37:04.725Z,3.93
2018-06-28T06:39:33.684Z,3.60
2018-06-28T06:42:02.654Z,3.33
2018-06-28T06:44:31.586Z,3.17
2018-06-28T06:47:00.506Z,3.47
2018-06-28T06:49:29.485Z,3.60
2018-06-28T06:51:58.397Z,3.03
2018-06-28T06:54:27.359Z,3.50
2018-06-28T06:59:31.419Z,3.27
2018-06-28T07:02:00.359Z,3.90
2018-06-28T07:04:29.305Z,4.07
2018-06-28T07:06:58.226Z,3.77
2018-06-28T07:09:27.087Z,3.47
2018-06-28T07:11:56.239Z,3.20
2018-06-28T07:14:25.163Z,3.60
2018-06-28T07:16:54.101Z,3.57
2018-06-28T07:19:23.133Z,3.57
2018-06-28T07:21:52.054Z,3.60
2018-06-28T07:24:21.032Z,3.03
2018-06-28T07:26:50.106Z,2.90
2018-06-28T07:29:19.137Z,4.13
2018-06-28T07:31:48.069Z,3.67
2018-06-28T07:34:17.291Z,3.87
2018-06-28T07:36:46.195Z,3.27
2018-06-28T07:39:15.240Z,3.30
2018-06-28T07:41:44.302Z,3.80
2018-06-28T07:44:13.182Z,2.90
2018-06-28T07:46:42.093Z,2.70
2018-06-28T07:49:11.041Z,3.07
2018-06-28T07:51:39.669Z,2.97
2018-06-28T07:54:08.383Z,2.70
2018-06-28T07:56:37.309Z,2.77
2018-06-28T07:59:06.217Z,2.80
2018-06-28T08:01:35.117Z,2.60
2018-06-28T08:04:04.006Z,2.27
2018-06-28T08:06:32.966Z,3.00
2018-06-28T08:09:01.997Z,2.93
2018-06-28T08:11:30.943Z,2.47
2018-06-28T08:13:59.862Z,2.30
2018-06-28T08:16:28.752Z,2.87
2018-06-28T08:18:57.675Z,2.83
2018-06-28T08:21:26.630Z,2.47
2018-06-28T08:23:55.483Z,3.03
2018-06-28T08:26:24.488Z,2.40
2018-06-28T08:28:53.349Z,2.73
2018-06-28T08:31:22.486Z,2.67
2018-06-28T08:33:51.395Z,2.53
2018-06-28T08:36:20.293Z,2.80
2018-06-28T08:38:49.151Z,2.70
2018-06-28T08:41:18.101Z,2.67
2018-06-28T08:43:47.006Z,2.83
2018-06-28T08:46:15.955Z,2.60
2018-06-28T08:48:44.945Z,2.57
2018-06-28T08:51:13.850Z,2.47
2018-06-28T08:53:42.780Z,2.80
2018-06-28T08:56:11.715Z,2.43
2018-06-28T08:58:40.682Z,2.47
2018-06-28T09:01:09.704Z,2.50
2018-06-28T09:03:38.658Z,2.30
2018-06-28T09:06:07.618Z,2.57
2018-06-28T09:08:36.574Z,2.33
2018-06-28T09:11:05.561Z,2.50
2018-06-28T09:13:34.616Z,2.50
2018-06-28T09:16:03.565Z,2.43
2018-06-28T09:18:32.495Z,2.53
2018-06-28T09:21:01.666Z,2.80
2018-06-28T09:23:30.561Z,2.27
2018-06-28T09:25:59.501Z,2.47
2018-06-28T09:28:28.414Z,2.60
2018-06-28T09:30:57.469Z,1.97
2018-06-28T09:33:26.447Z,2.40
2018-06-28T09:35:55.414Z,2.10
2018-06-28T09:38:24.258Z,2.30
2018-06-28T09:40:53.194Z,2.40
2018-06-28T09:43:22.174Z,2.50
2018-06-28T09:45:51.222Z,2.50
2018-06-28T09:48:19.896Z,2.20
2018-06-28T09:50:48.637Z,2.43
2018-06-28T09:53:17.557Z,2.30
2018-06-28T09:55:47.443Z,2.97
2018-06-28T09:58:16.377Z,2.40
2018-06-28T10:00:45.318Z,2.30
2018-06-28T10:03:14.294Z,2.27
2018-06-28T10:05:43.273Z,2.60
2018-06-28T10:08:12.177Z,2.53
2018-06-28T10:10:41.189Z,2.43
2018-06-28T10:13:10.124Z,2.60
2018-06-28T10:15:39.012Z,2.43
2018-06-28T10:18:07.995Z,2.33
2018-06-28T10:20:36.838Z,2.40
2018-06-28T10:23:05.766Z,1.93
2018-06-28T10:25:34.817Z,2.70
2018-06-28T10:28:03.729Z,2.73
2018-06-28T10:30:32.637Z,2.50
2018-06-28T10:33:01.630Z,2.70
2018-06-28T10:35:30.591Z,2.40
2018-06-28T10:37:59.549Z,2.90
2018-06-28T10:40:28.479Z,2.30
2018-06-28T10:42:57.457Z,2.30
2018-06-28T10:45:26.367Z,2.13
2018-06-28T10:47:55.434Z,2.63
2018-06-28T10:50:24.431Z,2.20
2018-06-28T10:52:53.466Z,2.43
2018-06-28T10:55:22.153Z,2.40
2018-06-28T10:57:50.866Z,2.47
2018-06-28T11:00:19.762Z,2.13
2018-06-28T11:02:48.626Z,2.50
2018-06-28T11:05:17.513Z,2.70
2018-06-28T11:07:46.462Z,2.80
2018-06-28T11:10:15.522Z,2.47
2018-06-28T11:12:44.508Z,2.67
2018-06-28T11:15:13.409Z,2.50
2018-06-28T11:17:42.297Z,2.70
2018-06-28T11:20:11.246Z,2.70
2018-06-28T11:22:40.262Z,2.73
2018-06-28T11:25:09.556Z,2.83
2018-06-28T11:27:38.557Z,2.47
2018-06-28T11:30:07.544Z,2.57
2018-06-28T11:32:36.441Z,2.50
2018-06-28T11:35:05.471Z,2.60
2018-06-28T11:37:34.340Z,2.60
2018-06-28T11:40:03.309Z,2.23
2018-06-28T11:42:32.254Z,2.17
2018-06-28T11:45:01.211Z,2.70
2018-06-28T11:47:30.258Z,2.70
2018-06-28T11:49:59.187Z,2.70
2018-06-28T11:52:28.113Z,2.57
2018-06-28T11:54:57.052Z,2.60
2018-06-28T11:57:25.981Z,2.63
2018-06-28T11:59:54.911Z,2.70
2018-06-28T12:02:23.966Z,2.63
2018-06-28T12:04:52.949Z,2.40
2018-06-28T12:07:21.896Z,2.30
2018-06-28T12:09:50.812Z,2.40
2018-06-28T12:12:19.857Z,2.57
2018-06-28T12:14:48.902Z,2.40
2018-06-28T12:17:18.693Z,3.17
2018-06-28T12:19:47.616Z,2.47
2018-06-28T12:22:16.650Z,2.97
2018-06-28T12:24:45.616Z,2.60
2018-06-28T12:27:14.647Z,2.30
2018-06-28T12:29:43.587Z,2.60
2018-06-28T12:32:12.487Z,3.20
2018-06-28T12:34:41.426Z,2.20
2018-06-28T12:37:10.353Z,2.80
2018-06-28T12:39:39.274Z,3.00
2018-06-28T12:42:08.208Z,2.50
2018-06-28T12:44:37.158Z,2.47
2018-06-28T12:47:42.456Z,4.77
2018-06-28T12:50:11.379Z,9.67
2018-06-28T12:52:43.432Z,4.93
2018-06-28T12:55:12.377Z,2.73
2018-06-28T12:57:41.334Z,1.93
2018-06-28T13:00:10.322Z,2.50
2018-06-28T13:02:39.220Z,2.43
2018-06-28T13:05:08.485Z,2.63
2018-06-28T13:07:37.398Z,2.40
2018-06-28T13:10:07.395Z,2.47
2018-06-28T13:12:36.323Z,2.70
2018-06-28T13:15:05.826Z,2.67
2018-06-28T13:17:34.544Z,2.60
2018-06-28T13:20:03.920Z,2.50
2018-06-28T13:22:32.828Z,2.37
2018-06-28T13:25:01.759Z,2.13
2018-06-28T13:27:30.581Z,2.50
2018-06-28T13:29:59.274Z,2.30
2018-06-28T13:32:28.205Z,2.90
2018-06-28T13:34:57.177Z,2.30
2018-06-28T13:37:26.181Z,2.70
2018-06-28T13:39:55.233Z,2.60
2018-06-28T13:42:24.158Z,2.60
2018-06-28T13:44:53.206Z,2.60
2018-06-28T13:47:22.126Z,2.63
2018-06-28T13:49:51.058Z,2.30
2018-06-28T13:52:19.958Z,2.40
2018-06-28T13:54:48.897Z,2.47
2018-06-28T13:57:17.845Z,2.57
2018-06-28T13:59:46.746Z,2.70
2018-06-28T14:02:15.714Z,2.37
2018-06-28T14:04:44.774Z,2.60
2018-06-28T14:07:13.719Z,2.33
2018-06-28T14:09:42.489Z,2.33
2018-06-28T14:12:11.158Z,2.40
2018-06-28T14:14:40.090Z,2.37
2018-06-28T14:17:08.996Z,1.90
2018-06-28T14:19:38.145Z,2.13
2018-06-28T14:22:07.187Z,2.37
2018-06-28T14:24:36.102Z,2.03
2018-06-28T14:27:05.022Z,2.20
2018-06-28T14:29:33.952Z,2.20
2018-06-28T14:32:02.873Z,2.00
2018-06-28T14:34:31.989Z,2.43
2018-06-28T14:37:00.905Z,1.67
2018-06-28T14:39:29.861Z,2.10
2018-06-28T14:41:58.822Z,2.00
2018-06-28T14:44:27.755Z,1.77
2018-06-28T14:46:56.746Z,2.00
2018-06-28T14:49:25.740Z,2.10
2018-06-28T14:51:54.665Z,2.20
2018-06-28T14:54:23.893Z,2.40
2018-06-28T14:56:52.925Z,2.20
2018-06-28T14:59:21.518Z,2.00
2018-06-28T15:01:50.278Z,2.00
2018-06-28T15:04:19.243Z,1.80
2018-06-28T15:06:48.235Z,2.13
2018-06-28T15:09:17.497Z,1.83
2018-06-28T15:11:46.409Z,1.93
2018-06-28T15:14:15.349Z,2.27
2018-06-28T15:16:44.287Z,2.30
2018-06-28T15:19:13.198Z,2.60
2018-06-28T15:21:42.142Z,2.30
2018-06-28T15:24:11.069Z,1.87
2018-06-28T15:26:40.172Z,2.37
2018-06-28T15:29:09.074Z,2.30
2018-06-28T15:31:38.040Z,2.00
2018-06-28T15:34:07.018Z,2.07
2018-06-28T15:36:36.401Z,2.10
2018-06-28T15:39:07.822Z,1.63
2018-06-28T15:41:36.831Z,1.77
2018-06-28T15:44:05.761Z,1.97
2018-06-28T15:46:34.752Z,1.80
2018-06-28T15:49:03.814Z,1.77
2018-06-28T15:51:32.730Z,1.90
2018-06-28T15:54:01.686Z,1.80
2018-06-28T15:56:30.569Z,1.90
2018-06-28T15:58:59.647Z,1.70
2018-06-28T16:01:28.626Z,1.87
2018-06-28T16:03:57.528Z,1.80
2018-06-28T16:06:26.409Z,1.80
2018-06-28T16:08:55.502Z,1.70
2018-06-28T16:11:24.547Z,1.90
2018-06-28T16:13:53.594Z,1.70
2018-06-28T16:16:22.527Z,1.83
2018-06-28T16:18:51.645Z,1.93
2018-06-28T16:21:20.322Z,1.80
2018-06-28T16:23:49.060Z,1.53
2018-06-28T16:26:17.983Z,1.63
2018-06-28T16:28:47.089Z,1.53
2018-06-28T16:31:16.067Z,1.60
2018-06-28T16:33:45.042Z,1.87
2018-06-28T16:36:14.038Z,1.60
2018-06-28T16:38:43.024Z,1.90
2018-06-28T16:41:12.114Z,1.87
2018-06-28T16:43:41.209Z,2.07
2018-06-28T16:46:10.312Z,1.90
2018-06-28T16:48:39.253Z,2.20
2018-06-28T16:51:08.184Z,2.00
2018-06-28T16:53:37.179Z,1.60
2018-06-28T16:56:06.242Z,1.73
2018-06-28T16:58:35.187Z,1.93
2018-06-28T17:01:04.229Z,2.00
2018-06-28T17:03:33.274Z,1.67
2018-06-28T17:06:02.398Z,2.00
2018-06-28T17:08:31.469Z,2.00
2018-06-28T17:11:00.405Z,2.10
2018-06-28T17:13:29.469Z,2.03
2018-06-28T17:15:58.492Z,2.30
2018-06-28T17:18:27.455Z,1.67
2018-06-28T17:20:56.457Z,1.90
2018-06-28T17:23:25.414Z,1.80
2018-06-28T17:25:54.457Z,1.80
2018-06-28T17:28:23.449Z,1.60
2018-06-28T17:30:52.426Z,1.60
2018-06-28T17:33:21.431Z,1.50
2018-06-28T17:35:50.470Z,1.73
2018-06-28T17:38:19.390Z,1.60
2018-06-28T17:40:48.369Z,1.73
2018-06-28T17:43:17.337Z,1.77
2018-06-28T17:45:46.277Z,1.70
2018-06-28T17:48:15.207Z,1.57
2018-06-28T17:50:44.263Z,1.77
2018-06-28T17:53:13.174Z,1.70
2018-06-28T17:55:42.133Z,1.80
2018-06-28T17:58:11.133Z,1.73
2018-06-28T18:00:40.117Z,2.00
2018-06-28T18:03:09.082Z,1.97
2018-06-28T18:05:38.096Z,1.40
2018-06-28T18:08:07.106Z,1.80
2018-06-28T18:10:36.097Z,2.03
2018-06-28T18:13:05.256Z,1.80
2018-06-28T18:15:34.207Z,1.70
2018-06-28T18:18:03.288Z,2.10
2018-06-28T18:20:32.233Z,2.13
2018-06-28T18:23:00.856Z,2.03
2018-06-28T18:25:29.542Z,1.90
2018-06-28T18:27:58.585Z,1.87
2018-06-28T18:30:27.568Z,2.00
2018-06-28T18:32:56.498Z,2.10
2018-06-28T18:35:25.880Z,2.13
2018-06-28T18:37:54.822Z,2.17
2018-06-28T18:40:23.761Z,1.80
2018-06-28T18:42:52.720Z,2.17
2018-06-28T18:45:21.826Z,2.07
2018-06-28T18:47:50.924Z,2.03
2018-06-28T18:50:20.010Z,1.97
2018-06-28T18:52:48.971Z,1.80
2018-06-28T18:55:17.961Z,1.90
2018-06-28T18:57:46.941Z,2.00
2018-06-28T19:00:15.913Z,1.90
2018-06-28T19:02:44.917Z,1.80
2018-06-28T19:05:13.911Z,2.00
2018-06-28T19:07:42.836Z,1.77
2018-06-28T19:10:11.823Z,1.90
2018-06-28T19:12:40.762Z,1.80
2018-06-28T19:15:09.769Z,2.37
2018-06-28T19:17:38.817Z,2.13
2018-06-28T19:20:07.955Z,1.93
2018-06-28T19:22:37.801Z,2.10
2018-06-28T19:25:06.910Z,2.10
2018-06-28T19:27:36.003Z,2.03
2018-06-28T19:30:05.029Z,1.90
2018-06-28T19:32:34.056Z,1.90
2018-06-28T19:35:03.170Z,2.40
2018-06-28T19:37:32.250Z,2.20
2018-06-28T19:40:01.254Z,2.00
2018-06-28T19:42:30.314Z,2.30
2018-06-28T19:44:59.600Z,1.93
2018-06-28T19:47:35.375Z,1.70
2018-06-28T19:50:05.320Z,1.83
2018-06-28T19:52:34.338Z,2.13
2018-06-28T19:55:03.523Z,1.90
2018-06-28T19:57:33.108Z,1.87
2018-06-28T20:00:02.375Z,1.80
2018-06-28T20:02:31.471Z,1.80
2018-06-28T20:05:00.431Z,2.07
2018-06-28T20:07:29.372Z,2.00
2018-06-28T20:09:58.329Z,2.03
2018-06-28T20:12:27.366Z,1.80
2018-06-28T20:14:56.398Z,2.03
2018-06-28T20:17:25.359Z,1.90
2018-06-28T20:19:54.324Z,1.67
2018-06-28T20:22:23.331Z,2.20
2018-06-28T20:24:52.342Z,1.83
2018-06-28T20:27:21.029Z,2.03
2018-06-28T20:29:49.761Z,2.20
2018-06-28T20:32:18.676Z,1.73
2018-06-28T20:34:47.582Z,1.90
2018-06-28T20:37:16.490Z,1.77
2018-06-28T20:39:45.404Z,2.20
2018-06-28T20:42:14.392Z,1.97
2018-06-28T20:44:43.341Z,1.83
2018-06-28T20:47:12.309Z,2.23
2018-06-28T20:49:41.280Z,2.10
2018-06-28T20:52:10.209Z,2.10
2018-06-28T20:54:39.139Z,2.30
2018-06-28T20:57:08.137Z,2.30
2018-06-28T20:59:37.095Z,2.63
2018-06-28T21:02:06.054Z,2.20
2018-06-28T21:04:34.979Z,2.07
2018-06-28T21:07:03.926Z,1.97
2018-06-28T21:09:32.833Z,2.10
2018-06-28T21:12:02.025Z,1.83
2018-06-28T21:14:31.254Z,1.97
2018-06-28T21:17:00.214Z,2.10
2018-06-28T21:19:29.137Z,1.93
2018-06-28T21:21:58.041Z,2.00
2018-06-28T21:24:27.109Z,1.80
2018-06-28T21:26:56.134Z,2.20
2018-06-28T21:29:25.040Z,2.30
2018-06-28T21:31:53.962Z,2.10
2018-06-28T21:34:23.014Z,2.07
2018-06-28T21:36:52.081Z,2.17
2018-06-28T21:39:20.970Z,2.03
2018-06-28T21:41:49.858Z,1.90
2018-06-28T21:44:18.761Z,1.60
2018-06-28T21:46:48.693Z,1.90
2018-06-28T21:49:17.604Z,2.10
2018-06-28T21:51:46.510Z,2.37
2018-06-28T21:54:15.661Z,2.07
2018-06-28T21:56:44.608Z,2.10
2018-06-28T21:59:13.478Z,2.10
2018-06-28T22:01:47.182Z,2.57
2018-06-28T22:04:16.105Z,2.57
2018-06-28T22:06:45.131Z,1.70
2018-06-28T22:09:14.035Z,2.17
2018-06-28T22:11:42.967Z,2.10
2018-06-28T22:14:12.008Z,2.00
2018-06-28T22:16:41.198Z,2.00
2018-06-28T22:19:10.156Z,1.60
2018-06-28T22:21:39.210Z,1.97
2018-06-28T22:24:08.153Z,1.87
2018-06-28T22:26:37.236Z,1.80
2018-06-28T22:29:06.214Z,1.67
2018-06-28T22:31:46.371Z,1.70
2018-06-28T22:34:15.346Z,1.40
2018-06-28T22:36:44.153Z,1.50
2018-06-28T22:39:13.195Z,1.20
2018-06-28T22:41:42.056Z,1.53
2018-06-28T22:44:10.971Z,1.50
2018-06-28T22:46:39.836Z,1.27
2018-06-28T22:49:08.708Z,1.37
2018-06-28T22:51:37.590Z,1.20
2018-06-28T22:54:06.475Z,1.30
2018-06-28T22:56:35.372Z,1.60
2018-06-28T22:59:04.290Z,1.40
2018-06-28T23:01:33.259Z,1.50
2018-06-28T23:04:02.321Z,1.60
2018-06-28T23:06:31.193Z,1.30
2018-06-28T23:09:00.120Z,1.77
2018-06-28T23:11:29.012Z,1.80
2018-06-28T23:13:57.947Z,1.70
2018-06-28T23:16:26.833Z,1.90
2018-06-28T23:18:55.711Z,1.97
2018-06-28T23:21:24.598Z,1.80
2018-06-28T23:23:53.275Z,1.83
2018-06-28T23:26:22.049Z,1.97
2018-06-28T23:28:50.964Z,1.90
2018-06-28T23:31:19.837Z,1.93
2018-06-28T23:33:48.856Z,1.87
2018-06-28T23:36:17.976Z,1.90
2018-06-28T23:38:46.951Z,1.70
2018-06-28T23:41:15.854Z,2.27
2018-06-28T23:43:44.742Z,1.67
2018-06-28T23:46:13.845Z,1.90
2018-06-28T23:48:42.703Z,2.20
2018-06-28T23:51:11.704Z,2.03
2018-06-28T23:53:40.633Z,1.70
2018-06-28T23:56:09.564Z,1.60
2018-06-28T23:58:38.409Z,1.60
